Klagenfurt, Austria

11:49 PM CEST am 28. April 2017 (GMT +0200)
Klagenfurt | | Change Station

Höhe 1483 ft 46.65 °N, 14.33 °E | Updated 29 minutes ago

Mostly Cloudy
Wolkig
39 °F
gefühlte 36 °F
N
5
Wind Wechselnd Wind aus West-Nordwest

Heute
Max. -- | schwach -- °F
--% Regenrisiko
Gestern
Max. -- | schwach -- °F
Precip. -- inch
Druck 29.95 inch
Sichtweite 6.2 Meilen
Wolken Few 9000 ft
Wolkig 10000 ft
Windchill 36 °F
Taupunkt 37 °F
Feuchtigkeit 93%
Regen 0.00 inch
Schneehöhe Nicht verfügbar..
5:52 AM 8:08 PM
Erstes Viertel, 9% visible
METAR LOWK 282120Z AUTO 29004KT 230V310 9999 FEW090 BKN100 04/03 Q1014 NOSIG
Druck 29.95 inch
Sichtweite 6.2 Meilen
Wolken Few 9000 ft
Wolkig 10000 ft
Windchill 36 °F
Taupunkt 37 °F
Feuchtigkeit 93%
Regen 0.00 inch
Schneehöhe Nicht verfügbar..
5:52 AM 8:08 PM
Erstes Viertel, 9% visible
METAR LOWK 282120Z AUTO 29004KT 230V310 9999 FEW090 BKN100 04/03 Q1014 NOSIG

Get Severe Weather Alerts

Thanks for signing up!

Be on the lookout for a verification email in your inbox.

You'll start receiving the daily forecast at 8 AM.

×

10-Day Weather Forecast

×

Almanac

Astronomie

Apr. 28, 2017 Aufgang Untergang
Genaue Zeit
Bürgerliche Dämmerung
Nautische Dämmerung
Astronomische Dämmerung
Mond
Länge des sichtbaren Lichts
Tageslänge
Tomorrow will be .
, % of the Moon is Illuminated

Heutige Rekorde

Country Highs Country Lows

Community

WunderPhotos

WunderBlog® & News

Nearby

Luftqualität

  Luftqualität LQ Index Schadstoff
Not available.

Schneehöhe

Station Depth Höhe

Erdbebenaktivität

Stadt Distance Mag. Time & Date
Minimum magnitude displayed is 2.5.

küstennahe Wassertemperaturen

Ort Temperatur

Stations

Wetterstationen in der Umgebung

Stationsstandort Temp. Windchill Taupunkt Feuchtigkeit Wind Precip. Höhe Aktualisiert Art